createdAt,value
2019-03-26T00:00:33.887Z,81.50
2019-03-26T00:03:07.787Z,82.57
2019-03-26T00:05:41.409Z,74.82
2019-03-26T00:08:24.410Z,86.50
2019-03-26T00:10:59.335Z,80.55
2019-03-26T00:13:32.567Z,82.78
2019-03-26T00:16:06.477Z,81.45
2019-03-26T00:21:34.097Z,80.67
2019-03-26T00:24:08.052Z,87.92
2019-03-26T00:27:17.849Z,82.47
2019-03-26T00:29:51.915Z,89.03
2019-03-26T00:32:25.496Z,84.37
2019-03-26T00:35:09.632Z,84.97
2019-03-26T00:37:54.312Z,82.42
2019-03-26T00:40:28.519Z,88.17
2019-03-26T00:43:02.348Z,86.05
2019-03-26T00:45:37.363Z,87.65
2019-03-26T00:48:11.436Z,83.20
2019-03-26T00:50:45.983Z,68.65
2019-03-26T00:53:20.374Z,80.30
2019-03-26T00:55:53.860Z,80.42
2019-03-26T00:58:27.625Z,78.80
2019-03-26T01:01:01.152Z,76.12
2019-03-26T01:03:35.490Z,82.97
2019-03-26T01:06:09.063Z,65.42
2019-03-26T01:08:42.926Z,82.08
2019-03-26T01:11:16.533Z,84.75
2019-03-26T01:13:49.886Z,82.78
2019-03-26T01:16:23.101Z,93.15
2019-03-26T01:18:56.710Z,90.55
2019-03-26T01:21:30.319Z,93.58
2019-03-26T01:24:04.063Z,94.42
2019-03-26T01:26:37.453Z,90.92
2019-03-26T01:29:11.475Z,91.82
2019-03-26T01:31:44.747Z,90.03
2019-03-26T01:34:18.357Z,93.90
2019-03-26T01:36:51.767Z,93.62
2019-03-26T01:39:25.610Z,88.95
2019-03-26T01:41:58.943Z,83.92
2019-03-26T01:44:32.492Z,92.95
2019-03-26T01:47:06.052Z,95.50
2019-03-26T01:49:39.850Z,96.65
2019-03-26T01:52:13.362Z,83.60
2019-03-26T01:54:46.815Z,88.85
2019-03-26T01:57:22.606Z,90.87
2019-03-26T01:59:55.849Z,87.20
2019-03-26T02:02:32.296Z,85.53
2019-03-26T02:05:06.551Z,79.47
2019-03-26T02:07:39.997Z,80.20
2019-03-26T02:10:34.109Z,88.60
2019-03-26T02:16:10.671Z,82.67
2019-03-26T02:18:45.416Z,82.47
2019-03-26T02:21:20.425Z,74.07
2019-03-26T02:23:54.218Z,76.70
2019-03-26T02:26:32.436Z,81.80
2019-03-26T02:29:06.589Z,78.50
2019-03-26T02:31:43.356Z,79.30
2019-03-26T02:34:19.301Z,73.37
2019-03-26T02:36:52.758Z,71.37
2019-03-26T02:39:26.442Z,77.00
2019-03-26T02:42:12.231Z,72.58
2019-03-26T02:44:39.028Z,72.37
2019-03-26T02:47:12.851Z,76.20
2019-03-26T02:49:48.978Z,74.65
2019-03-26T02:52:22.938Z,72.25
2019-03-26T02:54:56.338Z,73.57
2019-03-26T02:57:30.093Z,68.85
2019-03-26T03:00:04.369Z,66.00
2019-03-26T03:02:38.102Z,67.05
2019-03-26T03:05:11.531Z,67.80
2019-03-26T03:07:44.865Z,71.80
2019-03-26T03:10:18.356Z,71.57
2019-03-26T03:12:53.425Z,68.97
2019-03-26T03:15:27.755Z,64.85
2019-03-26T03:18:01.384Z,67.42
2019-03-26T03:20:34.599Z,67.27
2019-03-26T03:23:08.329Z,73.35
2019-03-26T03:25:41.672Z,68.57
2019-03-26T03:28:19.182Z,69.17
2019-03-26T03:30:53.516Z,41.23
2019-03-26T03:33:30.472Z,62.10
2019-03-26T03:36:02.514Z,59.80
2019-03-26T03:38:35.815Z,51.28
2019-03-26T03:41:42.143Z,64.95
2019-03-26T03:47:31.416Z,47.73
2019-03-26T03:53:39.342Z,68.57
2019-03-26T03:57:00.967Z,71.77
2019-03-26T04:12:50.368Z,76.12
2019-03-26T04:16:14.517Z,76.53
2019-03-26T04:21:46.182Z,64.17
2019-03-26T04:25:10.860Z,62.05
2019-03-26T04:27:10.395Z,57.55
2019-03-26T04:29:45.549Z,69.58
2019-03-26T04:32:19.162Z,74.80
2019-03-26T04:35:19.539Z,72.70
2019-03-26T04:37:57.423Z,73.70
2019-03-26T04:40:32.136Z,70.67
2019-03-26T04:43:09.419Z,67.15
2019-03-26T04:45:43.694Z,77.15
2019-03-26T04:48:18.519Z,71.25
2019-03-26T04:51:02.281Z,74.62
2019-03-26T04:53:34.087Z,78.67
2019-03-26T04:56:07.756Z,73.65
2019-03-26T04:58:44.039Z,72.70
2019-03-26T05:01:17.560Z,70.12
2019-03-26T05:03:51.038Z,77.60
2019-03-26T05:06:37.220Z,80.22
2019-03-26T05:08:59.957Z,78.07
2019-03-26T05:12:25.546Z,78.83
2019-03-26T05:15:16.961Z,73.30
2019-03-26T05:17:51.963Z,81.10
2019-03-26T05:20:29.463Z,84.22
2019-03-26T05:23:03.303Z,79.03
2019-03-26T05:25:37.644Z,73.45
2019-03-26T05:28:11.289Z,75.95
2019-03-26T05:30:58.487Z,76.75
2019-03-26T05:33:37.229Z,79.32
2019-03-26T05:36:09.127Z,74.05
2019-03-26T05:38:42.452Z,79.35
2019-03-26T05:41:18.884Z,75.67
2019-03-26T05:43:53.416Z,77.72
2019-03-26T05:46:33.905Z,76.33
2019-03-26T05:49:07.209Z,72.97
2019-03-26T05:51:41.750Z,78.25
2019-03-26T05:54:16.380Z,79.42
2019-03-26T05:56:50.090Z,80.85
2019-03-26T05:59:23.289Z,78.60
2019-03-26T06:02:14.200Z,81.30
2019-03-26T06:04:40.920Z,76.90
2019-03-26T06:07:25.302Z,77.60
2019-03-26T06:09:59.473Z,75.57
2019-03-26T06:12:36.994Z,77.78
2019-03-26T06:15:22.341Z,77.45
2019-03-26T06:17:57.762Z,80.38
2019-03-26T06:20:35.563Z,76.97
2019-03-26T06:23:09.092Z,83.62
2019-03-26T06:25:43.790Z,80.45
2019-03-26T06:28:20.073Z,75.52
2019-03-26T06:30:54.718Z,78.45
2019-03-26T06:33:30.128Z,79.85
2019-03-26T06:36:04.251Z,82.90
2019-03-26T06:38:38.467Z,81.12
2019-03-26T06:41:12.068Z,86.57
2019-03-26T06:43:49.490Z,84.42
2019-03-26T06:46:23.809Z,88.07
2019-03-26T06:48:58.109Z,87.00
2019-03-26T06:51:35.378Z,86.82
2019-03-26T06:54:10.024Z,85.57
2019-03-26T06:56:43.898Z,86.97
2019-03-26T06:59:17.393Z,81.20
2019-03-26T07:01:51.635Z,85.42
2019-03-26T07:04:25.379Z,89.75
2019-03-26T07:06:59.153Z,91.25
2019-03-26T07:09:32.795Z,88.17
2019-03-26T07:12:07.792Z,83.25
2019-03-26T07:14:52.465Z,85.10
2019-03-26T07:17:27.567Z,86.35
2019-03-26T07:20:02.141Z,83.30
2019-03-26T07:22:36.984Z,83.72
2019-03-26T07:25:12.025Z,83.82
2019-03-26T07:27:46.612Z,80.87
2019-03-26T07:30:39.739Z,80.15
2019-03-26T07:33:13.449Z,83.17
2019-03-26T07:35:50.802Z,91.72
2019-03-26T07:38:27.536Z,91.97
2019-03-26T07:41:00.859Z,91.97
2019-03-26T07:43:34.587Z,96.57
2019-03-26T07:46:08.270Z,93.35
2019-03-26T07:48:43.379Z,94.15
2019-03-26T07:51:16.599Z,92.67
2019-03-26T07:53:50.374Z,96.75
2019-03-26T07:56:23.663Z,100.65
2019-03-26T07:58:57.108Z,96.30
2019-03-26T08:01:30.361Z,99.77
2019-03-26T08:04:04.293Z,95.90
2019-03-26T08:06:37.806Z,99.05
2019-03-26T08:09:11.575Z,104.07
2019-03-26T08:11:44.857Z,107.35
2019-03-26T08:14:18.260Z,102.45
2019-03-26T08:16:51.521Z,102.95
2019-03-26T08:19:25.384Z,108.32
2019-03-26T08:21:58.541Z,116.00
2019-03-26T08:24:32.175Z,106.15
2019-03-26T08:27:05.402Z,115.10
2019-03-26T08:29:40.885Z,121.25
2019-03-26T08:32:14.396Z,114.62
2019-03-26T08:34:48.062Z,114.50
2019-03-26T08:37:21.775Z,113.83
2019-03-26T08:39:56.149Z,120.57
2019-03-26T08:42:30.039Z,121.62
2019-03-26T08:45:03.596Z,115.62
2019-03-26T08:47:37.383Z,118.30
2019-03-26T08:50:11.225Z,103.27
2019-03-26T08:52:44.668Z,96.42
2019-03-26T08:55:19.789Z,99.37
2019-03-26T08:57:53.246Z,99.13
2019-03-26T09:00:32.068Z,94.37
2019-03-26T09:03:04.491Z,90.80
2019-03-26T09:05:38.297Z,89.40
2019-03-26T09:08:24.490Z,96.02
2019-03-26T09:10:51.705Z,84.13
2019-03-26T09:13:21.170Z,95.85
2019-03-26T09:15:54.656Z,93.62
2019-03-26T09:18:27.859Z,90.00
2019-03-26T09:21:01.833Z,62.10
2019-03-26T09:23:35.034Z,83.55
2019-03-26T09:26:08.524Z,90.40
2019-03-26T09:28:41.762Z,87.75
2019-03-26T09:31:18.990Z,91.97
2019-03-26T09:33:52.327Z,82.02
2019-03-26T09:36:26.055Z,86.65
2019-03-26T09:38:59.641Z,84.87
2019-03-26T09:41:33.505Z,89.65
2019-03-26T09:44:06.767Z,87.78
2019-03-26T09:46:40.490Z,89.55
2019-03-26T09:49:16.468Z,87.35
2019-03-26T09:51:48.732Z,88.27
2019-03-26T09:54:22.166Z,87.70
2019-03-26T09:56:55.785Z,88.58
2019-03-26T09:59:29.602Z,83.20
2019-03-26T10:02:03.450Z,88.47
2019-03-26T10:04:36.793Z,82.92
2019-03-26T10:07:20.733Z,83.25
2019-03-26T10:09:45.004Z,88.20
2019-03-26T10:12:18.864Z,91.32
2019-03-26T10:14:52.319Z,89.65
2019-03-26T10:17:25.885Z,81.30
2019-03-26T10:19:59.256Z,84.32
2019-03-26T10:22:32.960Z,83.75
2019-03-26T10:25:28.858Z,86.32
2019-03-26T10:27:53.058Z,89.55
2019-03-26T10:30:38.468Z,87.95
2019-03-26T10:33:12.103Z,86.35
2019-03-26T10:38:40.995Z,87.37
2019-03-26T10:41:14.744Z,88.05
2019-03-26T10:43:48.080Z,89.60
2019-03-26T10:46:22.717Z,88.27
2019-03-26T10:48:56.120Z,89.62
2019-03-26T10:51:30.319Z,94.55
2019-03-26T10:54:05.219Z,84.67
2019-03-26T10:56:38.392Z,86.57
2019-03-26T10:59:11.736Z,87.85
2019-03-26T11:01:45.888Z,85.38
2019-03-26T11:04:22.117Z,85.80
2019-03-26T11:06:56.033Z,85.53
2019-03-26T11:09:30.223Z,83.42
2019-03-26T11:12:06.662Z,86.25
2019-03-26T11:14:40.088Z,85.60
2019-03-26T11:17:16.659Z,82.55
2019-03-26T11:19:53.051Z,88.62
2019-03-26T11:22:27.289Z,90.90
2019-03-26T11:25:03.470Z,91.35
2019-03-26T11:27:37.609Z,93.30
2019-03-26T11:30:11.489Z,93.07
2019-03-26T11:32:45.503Z,95.28
2019-03-26T11:35:19.102Z,88.60
2019-03-26T11:37:59.854Z,87.72
2019-03-26T11:43:07.725Z,85.65
2019-03-26T11:45:42.119Z,89.77
2019-03-26T11:48:21.547Z,89.40
2019-03-26T11:50:55.868Z,89.25
2019-03-26T11:53:29.593Z,84.70
2019-03-26T11:56:05.482Z,89.20
2019-03-26T11:58:39.845Z,84.58
2019-03-26T12:01:13.392Z,86.28
2019-03-26T12:03:47.053Z,84.83
2019-03-26T12:06:21.071Z,89.60
2019-03-26T12:08:54.492Z,87.20
2019-03-26T12:11:27.909Z,90.72
2019-03-26T12:14:01.381Z,89.92
2019-03-26T12:16:35.081Z,92.25
2019-03-26T12:19:08.410Z,91.78
2019-03-26T12:21:55.810Z,90.70
2019-03-26T12:24:32.585Z,91.72
2019-03-26T12:27:11.101Z,90.03
2019-03-26T12:29:47.019Z,93.05
2019-03-26T12:32:23.941Z,92.25
2019-03-26T12:34:57.878Z,84.85
2019-03-26T12:37:35.788Z,88.72
2019-03-26T12:40:18.307Z,93.25
2019-03-26T12:42:56.853Z,90.67
2019-03-26T12:45:30.145Z,95.55
2019-03-26T12:48:10.598Z,99.97
2019-03-26T12:50:46.419Z,102.75
2019-03-26T12:53:21.382Z,103.10
2019-03-26T12:55:55.562Z,103.92
2019-03-26T12:58:36.073Z,103.38
2019-03-26T13:01:06.563Z,101.60
2019-03-26T13:03:40.354Z,100.55
2019-03-26T13:06:17.616Z,106.22
2019-03-26T13:08:51.335Z,105.83
2019-03-26T13:11:28.848Z,99.60
2019-03-26T13:13:59.969Z,101.53
2019-03-26T13:16:33.382Z,104.72
2019-03-26T13:19:06.969Z,104.92
2019-03-26T13:21:41.756Z,114.00
2019-03-26T13:24:15.344Z,106.07
2019-03-26T13:26:49.268Z,103.17
2019-03-26T13:29:27.021Z,103.92
2019-03-26T13:32:01.013Z,103.45
2019-03-26T13:34:34.755Z,99.75
2019-03-26T13:37:10.079Z,106.25
2019-03-26T13:39:44.040Z,108.37
2019-03-26T13:42:17.943Z,104.63
2019-03-26T13:44:53.104Z,101.58
2019-03-26T13:47:27.688Z,109.35
2019-03-26T13:50:02.016Z,111.08
2019-03-26T13:52:35.448Z,105.97
2019-03-26T13:55:12.657Z,106.97
2019-03-26T13:57:46.454Z,105.78
2019-03-26T14:00:22.223Z,101.33
2019-03-26T14:02:56.016Z,99.07
2019-03-26T14:05:30.057Z,104.67
2019-03-26T14:08:03.290Z,100.00
2019-03-26T14:10:41.048Z,99.05
2019-03-26T14:13:11.627Z,98.07
2019-03-26T14:15:55.266Z,97.17
2019-03-26T14:18:28.865Z,94.03
2019-03-26T14:21:02.539Z,94.07
2019-03-26T14:23:36.324Z,85.77
2019-03-26T14:26:10.115Z,82.75
2019-03-26T14:28:43.500Z,78.02
2019-03-26T14:31:17.059Z,81.47
2019-03-26T14:33:50.307Z,79.55
2019-03-26T14:36:24.586Z,77.75
2019-03-26T14:38:58.081Z,81.35
2019-03-26T14:41:31.722Z,72.82
2019-03-26T14:44:05.537Z,72.47
2019-03-26T14:46:39.505Z,74.10
2019-03-26T14:49:13.573Z,72.82
2019-03-26T14:51:47.495Z,76.05
2019-03-26T14:54:24.702Z,62.38
2019-03-26T14:56:59.033Z,65.15
2019-03-26T14:59:34.122Z,60.70
2019-03-26T15:02:07.750Z,65.80
2019-03-26T15:04:41.349Z,63.25
2019-03-26T15:07:16.980Z,56.23
2019-03-26T15:09:51.165Z,55.30
2019-03-26T15:12:24.694Z,57.85
2019-03-26T15:14:58.345Z,55.63
2019-03-26T15:17:33.150Z,57.33
2019-03-26T15:20:08.866Z,55.20
2019-03-26T15:22:42.177Z,54.00
2019-03-26T15:25:17.433Z,54.20
2019-03-26T15:27:50.805Z,56.83
2019-03-26T15:30:24.395Z,54.88
2019-03-26T15:32:57.955Z,51.55
2019-03-26T15:35:31.638Z,50.33
2019-03-26T15:38:10.056Z,51.28
2019-03-26T15:40:47.099Z,50.33
2019-03-26T15:43:20.678Z,48.70
2019-03-26T15:45:57.300Z,51.28
2019-03-26T15:48:40.833Z,53.00
2019-03-26T15:51:15.346Z,50.78
2019-03-26T15:53:54.398Z,49.10
2019-03-26T15:56:28.247Z,47.15
2019-03-26T15:59:13.576Z,49.93
2019-03-26T16:01:54.263Z,46.90
2019-03-26T16:04:32.820Z,48.98
2019-03-26T16:07:04.755Z,49.05
2019-03-26T16:09:39.489Z,49.27
2019-03-26T16:12:13.678Z,46.77
2019-03-26T16:14:47.355Z,50.60
2019-03-26T16:17:23.880Z,51.37
2019-03-26T16:20:05.625Z,48.28
2019-03-26T16:22:40.821Z,49.40
2019-03-26T16:28:56.080Z,47.48
2019-03-26T16:31:36.474Z,46.45
2019-03-26T16:34:10.509Z,47.62
2019-03-26T16:36:44.023Z,48.55
2019-03-26T16:39:17.707Z,49.00
2019-03-26T16:41:51.987Z,48.05
2019-03-26T16:44:25.747Z,48.50
2019-03-26T16:46:59.429Z,49.00
2019-03-26T16:49:33.472Z,49.40
2019-03-26T16:52:09.670Z,48.83
2019-03-26T16:54:43.542Z,47.75
2019-03-26T16:57:16.914Z,46.50
2019-03-26T16:59:53.836Z,48.08
2019-03-26T17:02:27.117Z,49.00
2019-03-26T17:05:00.804Z,48.02
2019-03-26T17:07:34.117Z,48.08
2019-03-26T17:10:09.454Z,47.67
2019-03-26T17:12:42.928Z,47.27
2019-03-26T17:15:16.950Z,48.05
2019-03-26T17:17:50.353Z,45.98
2019-03-26T17:20:31.942Z,47.25
2019-03-26T17:23:06.610Z,48.90
2019-03-26T17:25:40.250Z,48.95
2019-03-26T17:28:13.945Z,48.58
2019-03-26T17:30:47.736Z,48.73
2019-03-26T17:33:22.214Z,49.18
2019-03-26T17:35:55.568Z,51.70
2019-03-26T17:38:28.774Z,45.83
2019-03-26T17:41:02.222Z,46.85
2019-03-26T17:43:36.463Z,49.95
2019-03-26T17:46:09.757Z,50.30
2019-03-26T17:48:43.401Z,50.48
2019-03-26T17:51:17.096Z,48.48
2019-03-26T17:53:51.409Z,48.30
2019-03-26T17:56:25.960Z,48.35
2019-03-26T17:58:59.777Z,48.52
2019-03-26T18:01:33.500Z,48.17
2019-03-26T18:04:07.250Z,48.73
2019-03-26T18:06:40.864Z,47.08
2019-03-26T18:09:14.675Z,48.80
2019-03-26T18:11:48.887Z,49.03
2019-03-26T18:14:22.533Z,45.80
2019-03-26T18:16:56.380Z,48.40
2019-03-26T18:19:38.218Z,48.55
2019-03-26T18:22:15.349Z,47.10
2019-03-26T18:24:48.780Z,50.38
2019-03-26T18:27:25.873Z,46.37
2019-03-26T18:30:00.950Z,47.78
2019-03-26T18:32:36.451Z,51.42
2019-03-26T18:35:10.268Z,49.80
2019-03-26T18:37:43.556Z,48.60
2019-03-26T18:40:17.417Z,48.70
2019-03-26T18:42:51.749Z,47.33
2019-03-26T18:45:25.629Z,47.17
2019-03-26T18:47:59.646Z,49.70
2019-03-26T18:50:32.993Z,47.78
2019-03-26T18:53:06.571Z,50.05
2019-03-26T18:55:43.334Z,47.33
2019-03-26T18:58:16.706Z,49.30
2019-03-26T19:00:50.413Z,48.83
2019-03-26T19:03:23.705Z,49.83
2019-03-26T19:05:57.409Z,48.25
2019-03-26T19:08:31.703Z,49.13
2019-03-26T19:11:05.564Z,51.58
2019-03-26T19:13:38.808Z,47.88
2019-03-26T19:16:12.172Z,47.15
2019-03-26T19:18:45.399Z,50.03
2019-03-26T19:21:19.427Z,46.73
2019-03-26T19:24:03.385Z,48.10
2019-03-26T19:26:28.313Z,47.75
2019-03-26T19:29:02.114Z,46.40
2019-03-26T19:31:36.422Z,45.48
2019-03-26T19:34:09.729Z,47.80
2019-03-26T19:36:43.062Z,47.48
2019-03-26T19:39:17.279Z,48.00
2019-03-26T19:41:50.672Z,49.67
2019-03-26T19:44:23.972Z,48.48
2019-03-26T19:46:58.060Z,49.48
2019-03-26T19:49:31.384Z,48.25
2019-03-26T19:52:05.202Z,48.55
2019-03-26T19:54:38.584Z,49.00
2019-03-26T19:57:12.519Z,50.03
2019-03-26T19:59:45.689Z,49.80
2019-03-26T20:02:19.511Z,49.80
2019-03-26T20:04:52.683Z,50.48
2019-03-26T20:07:26.638Z,52.10
2019-03-26T20:10:00.564Z,51.70
2019-03-26T20:12:35.370Z,54.35
2019-03-26T20:15:10.771Z,53.20
2019-03-26T20:17:44.186Z,51.37
2019-03-26T20:20:18.298Z,52.48
2019-03-26T20:22:54.501Z,52.27
2019-03-26T20:25:28.376Z,47.05
2019-03-26T20:28:02.070Z,44.35
2019-03-26T20:30:35.380Z,49.58
2019-03-26T20:33:09.113Z,40.20
2019-03-26T20:35:42.393Z,50.10
2019-03-26T20:38:16.153Z,45.40
2019-03-26T20:40:50.031Z,44.42
2019-03-26T20:43:36.801Z,46.48
2019-03-26T20:45:59.710Z,45.17
2019-03-26T20:48:33.191Z,44.50
2019-03-26T20:51:06.542Z,42.17
2019-03-26T20:53:40.633Z,39.48
2019-03-26T20:56:15.488Z,39.13
2019-03-26T20:58:49.454Z,37.15
2019-03-26T21:01:22.869Z,39.90
2019-03-26T21:03:56.320Z,37.58
2019-03-26T21:06:29.758Z,40.63
2019-03-26T21:09:03.180Z,36.08
2019-03-26T21:11:37.985Z,19.52
2019-03-26T21:14:12.032Z,35.70
2019-03-26T21:16:45.476Z,36.42
2019-03-26T21:19:19.001Z,38.75
2019-03-26T21:21:53.098Z,39.20
2019-03-26T21:24:26.967Z,41.18
2019-03-26T21:27:01.236Z,40.50
2019-03-26T21:29:35.113Z,32.30
2019-03-26T21:32:08.469Z,38.28
2019-03-26T21:34:43.418Z,41.25
2019-03-26T21:37:16.772Z,38.65
2019-03-26T21:39:50.546Z,44.50
2019-03-26T21:42:23.790Z,44.33
2019-03-26T21:44:57.786Z,47.35
2019-03-26T21:47:30.957Z,43.17
2019-03-26T21:50:05.067Z,40.85
2019-03-26T21:52:40.417Z,48.60
2019-03-26T21:55:14.473Z,43.90
2019-03-26T21:57:49.784Z,45.55
2019-03-26T22:00:23.564Z,46.30
2019-03-26T22:02:57.052Z,44.00
2019-03-26T22:05:30.696Z,48.25
2019-03-26T22:08:04.564Z,46.25
2019-03-26T22:10:37.973Z,45.85
2019-03-26T22:13:11.684Z,46.70
2019-03-26T22:15:44.897Z,50.30
2019-03-26T22:18:18.819Z,49.05
2019-03-26T22:20:52.011Z,46.77
2019-03-26T22:23:25.707Z,46.20
2019-03-26T22:25:58.895Z,61.08
2019-03-26T22:28:32.217Z,57.43
2019-03-26T22:31:05.405Z,67.12
2019-03-26T22:33:39.216Z,69.72
2019-03-26T22:36:12.408Z,70.12
2019-03-26T22:38:46.020Z,86.35
2019-03-26T22:41:19.199Z,84.25
2019-03-26T22:43:55.094Z,81.65
2019-03-26T22:46:27.979Z,92.35
2019-03-26T22:49:01.852Z,95.60
2019-03-26T22:51:35.101Z,93.52
2019-03-26T22:54:09.049Z,101.87
2019-03-26T22:56:42.258Z,97.82
2019-03-26T22:59:15.558Z,94.95
2019-03-26T23:01:48.840Z,96.70
2019-03-26T23:04:22.914Z,86.82
2019-03-26T23:06:56.320Z,97.95
2019-03-26T23:09:29.901Z,104.78
2019-03-26T23:12:03.252Z,95.35
2019-03-26T23:14:45.006Z,96.67
2019-03-26T23:17:12.677Z,96.92
2019-03-26T23:19:46.527Z,101.92
2019-03-26T23:22:21.285Z,104.30
2019-03-26T23:24:56.418Z,89.28
2019-03-26T23:27:29.794Z,90.03
2019-03-26T23:30:03.226Z,99.10
2019-03-26T23:32:36.532Z,96.42
2019-03-26T23:35:10.993Z,89.03
2019-03-26T23:37:44.477Z,108.60
2019-03-26T23:40:18.294Z,106.05
2019-03-26T23:42:51.681Z,105.78
2019-03-26T23:45:25.707Z,98.97
2019-03-26T23:47:58.972Z,100.65
2019-03-26T23:50:32.933Z,96.05
2019-03-26T23:53:06.185Z,105.83
2019-03-26T23:55:40.996Z,102.07
2019-03-26T23:58:14.343Z,110.03
